Time;durP1;ratioP1;P1;durP2;ratioP2;P2;SDS_P1;SDS_P2;PMS_P1;PMS_P2;Temp;Humidity;BMP_temperature;BMP_pressure;BME280_temperature;BME280_humidity;BME280_pressure;Samples;Min_cycle;Max_cycle;Signal;HPM_P1;HPM_P2
2022/09/08 00:01:26;;;;;;;10.23;4.72;;;;;;;;;;4831032;29;20098;-73
2022/09/08 00:03:53;;;;;;;6.93;4.95;;;;;;;;;;4818325;29;20161;-72
2022/09/08 00:06:22;;;;;;;5.00;4.50;;;;;;;;;;4817267;29;20433;-72
2022/09/08 00:08:51;;;;;;;5.93;4.43;;;;;;;;;;4844441;29;20042;-72
2022/09/08 00:11:21;;;;;;;6.78;4.85;;;;;;;;;;4854306;29;20041;-73
2022/09/08 00:13:48;;;;;;;6.50;4.63;;;;;;;;;;4847765;29;20046;-73
2022/09/08 00:16:19;;;;;;;5.00;4.20;;;;;;;;;;4836056;29;20467;-73
2022/09/08 00:18:50;;;;;;;6.85;4.53;;;;;;;;;;4834210;29;20050;-73
2022/09/08 00:21:18;;;;;;;7.50;4.95;;;;;;;;;;4833086;29;20046;-73
2022/09/08 00:23:45;;;;;;;5.38;4.85;;;;;;;;;;4833187;29;20042;-74
2022/09/08 00:26:12;;;;;;;5.90;4.70;;;;;;;;;;4856770;29;20049;-72
2022/09/08 00:28:40;;;;;;;9.05;4.80;;;;;;;;;;4838941;29;20102;-73
2022/09/08 00:31:07;;;;;;;5.30;4.82;;;;;;;;;;4834707;29;20045;-72
2022/09/08 00:33:35;;;;;;;6.25;5.15;;;;;;;;;;4832051;29;20049;-73
2022/09/08 00:36:03;;;;;;;6.40;5.20;;;;;;;;;;4834472;29;20398;-73
2022/09/08 00:38:32;;;;;;;5.57;4.57;;;;;;;;;;4833196;29;20517;-73
2022/09/08 00:40:59;;;;;;;9.50;5.50;;;;;;;;;;4833200;29;20057;-73
2022/09/08 00:43:32;;;;;;;5.80;5.10;;;;;;;;;;4834259;29;20057;-72
2022/09/08 00:46:04;;;;;;;7.45;5.07;;;;;;;;;;4844195;29;20049;-73
2022/09/08 00:48:32;;;;;;;5.22;4.78;;;;;;;;;;4832138;29;20054;-72
2022/09/08 00:51:00;;;;;;;6.05;5.22;;;;;;;;;;4833045;29;20452;-73
2022/09/08 00:53:27;;;;;;;10.82;5.72;;;;;;;;;;4833226;29;20478;-73
2022/09/08 00:55:55;;;;;;;7.30;5.07;;;;;;;;;;4835421;29;20081;-72
2022/09/08 00:58:22;;;;;;;10.52;5.28;;;;;;;;;;4833669;29;20058;-73
2022/09/08 01:00:49;;;;;;;8.00;5.28;;;;;;;;;;4835444;29;20467;-74
2022/09/08 01:03:17;;;;;;;5.28;4.82;;;;;;;;;;4837149;29;20041;-72
2022/09/08 01:05:51;;;;;;;9.82;5.20;;;;;;;;;;4832593;29;20539;-73
2022/09/08 01:14:08;;;;;;;5.30;4.80;;;;;;;;;;4830009;29;20073;-74
2022/09/08 01:16:39;;;;;;;6.75;4.80;;;;;;;;;;4835322;29;20054;-73
2022/09/08 01:19:11;;;;;;;8.60;6.17;;;;;;;;;;4836632;29;20042;-74
2022/09/08 01:21:54;;;;;;;6.97;5.35;;;;;;;;;;4835944;29;20365;-73
2022/09/08 01:24:41;;;;;;;5.70;5.20;;;;;;;;;;4823793;29;20049;-73
2022/09/08 01:27:13;;;;;;;5.60;5.20;;;;;;;;;;4835008;29;20403;-74
2022/09/08 01:29:43;;;;;;;6.97;5.47;;;;;;;;;;4835468;29;20046;-73
2022/09/08 01:32:11;;;;;;;6.05;5.07;;;;;;;;;;4831707;29;20127;-73
2022/09/08 01:34:40;;;;;;;6.00;5.40;;;;;;;;;;4845715;29;20510;-73
2022/09/08 01:37:07;;;;;;;6.95;5.32;;;;;;;;;;4831418;29;20510;-73
2022/09/08 01:39:35;;;;;;;6.35;5.65;;;;;;;;;;4844013;29;20106;-74
2022/09/08 01:42:03;;;;;;;8.85;5.65;;;;;;;;;;4831246;29;20161;-73
2022/09/08 01:44:30;;;;;;;5.57;5.13;;;;;;;;;;4833592;29;20046;-73
2022/09/08 01:46:57;;;;;;;10.50;5.40;;;;;;;;;;4844371;29;20589;-73
2022/09/08 01:49:25;;;;;;;5.90;5.40;;;;;;;;;;4833364;29;20070;-73
2022/09/08 01:51:52;;;;;;;7.57;5.70;;;;;;;;;;4837826;29;20511;-73
2022/09/08 01:54:20;;;;;;;5.70;5.20;;;;;;;;;;4834064;29;20129;-73
2022/09/08 01:56:47;;;;;;;7.35;5.20;;;;;;;;;;4829626;29;21068;-73
2022/09/08 01:59:15;;;;;;;5.63;5.13;;;;;;;;;;4834260;29;20102;-74
2022/09/08 02:01:42;;;;;;;11.35;5.53;;;;;;;;;;4834539;29;20079;-73
2022/09/08 02:04:09;;;;;;;7.55;5.70;;;;;;;;;;4831921;29;20042;-73
2022/09/08 02:06:37;;;;;;;8.30;5.38;;;;;;;;;;4831087;29;20057;-72
2022/09/08 02:09:04;;;;;;;5.93;5.35;;;;;;;;;;4833985;29;20428;-73
2022/09/08 02:11:31;;;;;;;7.07;5.45;;;;;;;;;;4831993;29;20050;-73
2022/09/08 02:13:59;;;;;;;5.75;5.25;;;;;;;;;;4831630;29;20042;-73
2022/09/08 02:16:26;;;;;;;6.22;4.88;;;;;;;;;;4832908;29;20159;-73
2022/09/08 02:18:54;;;;;;;6.35;5.20;;;;;;;;;;4830944;29;20520;-73
2022/09/08 02:21:24;;;;;;;7.15;5.03;;;;;;;;;;4829161;29;20062;-72
2022/09/08 02:23:52;;;;;;;5.43;4.82;;;;;;;;;;4837886;29;20058;-72
2022/09/08 02:26:24;;;;;;;6.90;5.28;;;;;;;;;;4832629;29;20541;-73
2022/09/08 02:28:52;;;;;;;8.90;4.80;;;;;;;;;;4833746;29;20045;-73
2022/09/08 02:31:20;;;;;;;8.07;5.10;;;;;;;;;;4846362;29;20045;-73
2022/09/08 02:33:47;;;;;;;5.47;4.55;;;;;;;;;;4833571;29;20054;-73
2022/09/08 02:36:14;;;;;;;5.93;5.22;;;;;;;;;;4829591;29;20088;-73
2022/09/08 02:38:42;;;;;;;6.65;5.97;;;;;;;;;;4828181;29;20046;-73
2022/09/08 02:41:10;;;;;;;6.05;5.28;;;;;;;;;;4837774;29;20123;-73
2022/09/08 02:43:37;;;;;;;5.55;4.93;;;;;;;;;;4836743;29;20081;-73
2022/09/08 02:46:06;;;;;;;5.53;5.00;;;;;;;;;;4834576;29;20061;-73
2022/09/08 02:48:34;;;;;;;7.05;4.63;;;;;;;;;;4830522;29;20066;-73
2022/09/08 02:51:02;;;;;;;5.78;5.10;;;;;;;;;;4828865;29;20122;-72
2022/09/08 02:53:30;;;;;;;8.35;5.10;;;;;;;;;;4831048;29;20255;-74
2022/09/08 02:55:57;;;;;;;5.22;4.82;;;;;;;;;;4834748;29;20057;-73
2022/09/08 02:58:25;;;;;;;6.32;4.32;;;;;;;;;;4831289;29;20069;-74
2022/09/08 03:00:53;;;;;;;6.32;5.00;;;;;;;;;;4828948;29;20061;-73
2022/09/08 03:03:22;;;;;;;6.00;5.50;;;;;;;;;;4828786;29;20045;-72
2022/09/08 03:05:49;;;;;;;6.90;4.97;;;;;;;;;;4830361;29;20129;-73
2022/09/08 03:08:17;;;;;;;7.63;4.95;;;;;;;;;;4832277;29;20142;-72
2022/09/08 03:10:45;;;;;;;8.35;5.57;;;;;;;;;;4829904;29;20101;-73
2022/09/08 03:13:12;;;;;;;7.40;5.00;;;;;;;;;;4830454;29;20053;-72
2022/09/08 03:15:39;;;;;;;9.27;6.18;;;;;;;;;;4834206;29;20084;-73
2022/09/08 03:18:07;;;;;;;5.32;4.93;;;;;;;;;;4837723;29;20056;-73
2022/09/08 03:20:35;;;;;;;5.93;4.68;;;;;;;;;;4838520;29;20075;-74
2022/09/08 03:23:03;;;;;;;5.28;4.88;;;;;;;;;;4838649;29;20050;-73
2022/09/08 03:25:31;;;;;;;5.90;4.93;;;;;;;;;;4838492;29;20150;-73
2022/09/08 03:27:58;;;;;;;6.47;4.75;;;;;;;;;;4836635;29;20052;-73
2022/09/08 03:30:25;;;;;;;5.25;4.32;;;;;;;;;;4837983;29;21123;-73
2022/09/08 03:32:53;;;;;;;5.07;4.68;;;;;;;;;;4838627;29;20042;-74
2022/09/08 03:35:20;;;;;;;5.13;4.63;;;;;;;;;;4837226;29;20073;-74
2022/09/08 03:37:48;;;;;;;7.55;5.32;;;;;;;;;;4851738;29;20053;-73
2022/09/08 03:40:16;;;;;;;5.93;5.00;;;;;;;;;;4837653;29;20527;-73
2022/09/08 03:42:44;;;;;;;5.50;4.75;;;;;;;;;;4835978;29;20102;-73
2022/09/08 03:45:13;;;;;;;6.75;5.50;;;;;;;;;;4837494;29;20507;-73
2022/09/08 03:47:42;;;;;;;5.40;4.70;;;;;;;;;;4836673;29;20050;-73
2022/09/08 03:50:11;;;;;;;9.82;5.40;;;;;;;;;;4836885;29;20526;-72
2022/09/08 03:52:38;;;;;;;7.10;4.88;;;;;;;;;;4836674;29;20442;-73
2022/09/08 03:55:05;;;;;;;7.88;5.30;;;;;;;;;;4836929;29;20073;-73
2022/09/08 03:57:33;;;;;;;5.70;4.93;;;;;;;;;;4850440;29;20054;-73
2022/09/08 04:00:00;;;;;;;5.90;5.20;;;;;;;;;;4835169;29;20070;-73
2022/09/08 04:02:38;;;;;;;5.20;4.88;;;;;;;;;;4834079;29;20046;-72
2022/09/08 04:05:06;;;;;;;8.55;5.80;;;;;;;;;;4836122;29;20046;-73
2022/09/08 04:07:34;;;;;;;6.60;5.53;;;;;;;;;;4846404;29;20098;-73
2022/09/08 04:10:02;;;;;;;7.85;6.20;;;;;;;;;;4841396;29;20417;-72
2022/09/08 04:12:40;;;;;;;7.10;5.80;;;;;;;;;;4834106;29;20042;-74
2022/09/08 04:15:09;;;;;;;8.98;6.35;;;;;;;;;;4834106;29;20050;-72
2022/09/08 04:17:36;;;;;;;9.40;6.43;;;;;;;;;;4834841;29;20050;-72
2022/09/08 04:20:05;;;;;;;8.13;5.82;;;;;;;;;;4841060;29;20072;-72
2022/09/08 04:22:32;;;;;;;7.40;6.43;;;;;;;;;;4850601;29;20057;-73
2022/09/08 04:25:01;;;;;;;7.25;6.45;;;;;;;;;;4882418;23;20085;-77
2022/09/08 04:27:28;;;;;;;6.72;6.13;;;;;;;;;;4842270;29;20077;-76
2022/09/08 04:29:56;;;;;;;13.77;6.63;;;;;;;;;;4858982;29;20052;-78
2022/09/08 04:32:24;;;;;;;9.07;5.93;;;;;;;;;;4854688;29;20046;-78
2022/09/08 04:34:52;;;;;;;8.48;6.30;;;;;;;;;;4842030;29;20065;-79
2022/09/08 04:37:20;;;;;;;6.05;5.55;;;;;;;;;;4837233;29;20060;-78
2022/09/08 04:39:48;;;;;;;9.10;5.57;;;;;;;;;;4813117;29;20045;-78
2022/09/08 04:42:16;;;;;;;6.82;6.10;;;;;;;;;;4841775;29;20046;-77
2022/09/08 04:44:44;;;;;;;8.25;5.43;;;;;;;;;;4841636;29;20058;-78
2022/09/08 04:47:12;;;;;;;7.88;5.75;;;;;;;;;;4844818;29;20370;-78
2022/09/08 04:49:39;;;;;;;9.27;5.88;;;;;;;;;;4854653;29;20049;-78
2022/09/08 04:52:06;;;;;;;10.23;6.15;;;;;;;;;;4848646;29;20073;-78
2022/09/08 04:54:34;;;;;;;9.48;6.47;;;;;;;;;;4845156;29;20053;-76
2022/09/08 04:57:02;;;;;;;7.45;6.28;;;;;;;;;;4848121;29;20067;-76
2022/09/08 04:59:29;;;;;;;7.75;6.10;;;;;;;;;;4844888;29;20510;-77
2022/09/08 05:01:56;;;;;;;6.55;5.50;;;;;;;;;;4834684;29;20054;-76
2022/09/08 05:04:24;;;;;;;8.88;6.40;;;;;;;;;;4854285;29;20101;-76
2022/09/08 05:06:51;;;;;;;8.05;6.20;;;;;;;;;;4814000;29;20051;-76
2022/09/08 05:09:18;;;;;;;7.20;5.82;;;;;;;;;;4827040;29;20114;-76
2022/09/08 05:11:46;;;;;;;6.78;6.13;;;;;;;;;;4825382;29;20510;-78
2022/09/08 05:14:13;;;;;;;8.00;6.03;;;;;;;;;;4842082;29;20064;-77
2022/09/08 05:16:40;;;;;;;6.55;5.93;;;;;;;;;;4830266;29;20050;-76
2022/09/08 05:19:08;;;;;;;8.70;6.22;;;;;;;;;;4826602;29;20050;-77
2022/09/08 05:21:36;;;;;;;6.55;5.82;;;;;;;;;;4836089;29;20052;-77
2022/09/08 05:24:04;;;;;;;7.07;6.30;;;;;;;;;;4827308;29;20069;-78
2022/09/08 05:26:32;;;;;;;7.30;5.80;;;;;;;;;;4838529;29;20049;-77
2022/09/08 05:28:59;;;;;;;8.30;6.22;;;;;;;;;;4847351;29;20044;-78
2022/09/08 05:31:28;;;;;;;7.22;6.03;;;;;;;;;;4823530;29;20053;-77
2022/09/08 05:33:57;;;;;;;7.43;6.60;;;;;;;;;;4837250;29;20050;-77
2022/09/08 05:36:28;;;;;;;7.20;5.88;;;;;;;;;;4836661;29;20058;-77
2022/09/08 05:38:55;;;;;;;7.57;5.73;;;;;;;;;;4830483;29;20057;-77
2022/09/08 05:41:23;;;;;;;5.85;5.40;;;;;;;;;;4816526;29;20465;-77
2022/09/08 05:43:52;;;;;;;6.50;5.80;;;;;;;;;;4834630;29;20049;-77
2022/09/08 05:46:19;;;;;;;7.72;6.00;;;;;;;;;;4850826;29;20439;-77
2022/09/08 05:48:47;;;;;;;7.13;5.57;;;;;;;;;;4837786;29;20073;-78
2022/09/08 05:51:17;;;;;;;8.45;5.75;;;;;;;;;;4836667;29;20693;-77
2022/09/08 05:53:45;;;;;;;6.77;5.83;;;;;;;;;;4834887;29;20134;-77
2022/09/08 05:56:13;;;;;;;7.28;5.63;;;;;;;;;;4821398;29;20149;-78
2022/09/08 05:58:41;;;;;;;7.68;5.78;;;;;;;;;;4839128;29;20064;-77
2022/09/08 06:01:10;;;;;;;6.07;5.45;;;;;;;;;;4822494;29;20060;-77
2022/09/08 06:03:38;;;;;;;9.23;5.93;;;;;;;;;;4842217;29;20050;-77
2022/09/08 06:06:16;;;;;;;7.82;5.55;;;;;;;;;;4856854;29;20053;-77
2022/09/08 06:08:43;;;;;;;7.82;5.60;;;;;;;;;;4839992;29;20057;-77
2022/09/08 06:11:11;;;;;;;7.53;5.75;;;;;;;;;;4837164;29;20053;-77
2022/09/08 06:13:39;;;;;;;9.07;5.68;;;;;;;;;;4836418;29;20141;-77
2022/09/08 06:16:11;;;;;;;6.93;5.25;;;;;;;;;;4844111;29;20042;-77
2022/09/08 06:18:39;;;;;;;6.35;5.55;;;;;;;;;;4805150;29;20495;-77
2022/09/08 06:21:18;;;;;;;6.07;5.47;;;;;;;;;;4828364;29;20060;-77
2022/09/08 06:23:48;;;;;;;5.82;5.32;;;;;;;;;;4832272;29;20145;-77
2022/09/08 06:26:16;;;;;;;8.70;5.68;;;;;;;;;;4836081;29;20065;-77
2022/09/08 06:28:49;;;;;;;7.78;5.32;;;;;;;;;;4835834;29;20062;-77
2022/09/08 06:31:22;;;;;;;11.90;5.63;;;;;;;;;;4839204;29;20041;-77
2022/09/08 06:33:49;;;;;;;8.98;6.00;;;;;;;;;;4835236;29;20406;-77
2022/09/08 06:36:26;;;;;;;10.50;5.50;;;;;;;;;;4830323;29;20125;-77
2022/09/08 06:38:58;;;;;;;7.07;6.00;;;;;;;;;;4819350;29;20060;-77
2022/09/08 06:41:27;;;;;;;8.52;6.20;;;;;;;;;;4819469;29;20132;-77
2022/09/08 06:43:56;;;;;;;7.28;5.28;;;;;;;;;;4838573;29;20113;-77
2022/09/08 06:46:25;;;;;;;8.05;5.13;;;;;;;;;;4840763;29;20787;-78
2022/09/08 06:48:53;;;;;;;7.03;5.53;;;;;;;;;;4835027;29;20042;-77
2022/09/08 06:52:00;;;;;;;6.82;5.07;;;;;;;;;;4840244;29;20054;-78
2022/09/08 06:54:46;;;;;;;7.40;5.53;;;;;;;;;;4794052;29;20087;-78
2022/09/08 06:57:32;;;;;;;6.90;6.20;;;;;;;;;;4842654;29;20083;-78
2022/09/08 07:00:23;;;;;;;7.38;6.10;;;;;;;;;;4843505;29;20133;-77
2022/09/08 07:02:50;;;;;;;7.00;5.90;;;;;;;;;;4852076;29;20069;-77
2022/09/08 07:05:28;;;;;;;6.75;5.93;;;;;;;;;;4804619;29;20070;-77
2022/09/08 07:07:59;;;;;;;6.82;5.53;;;;;;;;;;4821000;29;20061;-77
2022/09/08 07:10:31;;;;;;;6.55;5.60;;;;;;;;;;4836686;29;20530;-77
2022/09/08 07:13:13;;;;;;;8.40;5.70;;;;;;;;;;4844527;29;20156;-77
2022/09/08 07:15:59;;;;;;;5.50;4.97;;;;;;;;;;4829125;29;20046;-77
2022/09/08 07:18:30;;;;;;;7.85;6.00;;;;;;;;;;4815034;29;20050;-77
2022/09/08 07:21:03;;;;;;;7.07;4.40;;;;;;;;;;4823189;29;20166;-78
2022/09/08 07:23:34;;;;;;;6.60;4.32;;;;;;;;;;4836327;29;20107;-77
2022/09/08 07:26:08;;;;;;;6.78;3.88;;;;;;;;;;4836972;29;20741;-77
2022/09/08 07:28:41;;;;;;;4.57;3.92;;;;;;;;;;4839686;29;20054;-77
2022/09/08 07:31:14;;;;;;;7.88;3.78;;;;;;;;;;4830927;29;20045;-77
2022/09/08 07:33:43;;;;;;;4.97;3.38;;;;;;;;;;4831440;29;20058;-78
2022/09/08 07:36:30;;;;;;;4.80;2.47;;;;;;;;;;4837893;29;20076;-77
2022/09/08 07:39:00;;;;;;;2.13;2.00;;;;;;;;;;4839357;29;20057;-77
2022/09/08 07:41:40;;;;;;;3.13;1.70;;;;;;;;;;4833810;29;20054;-77
2022/09/08 07:44:13;;;;;;;4.03;2.00;;;;;;;;;;4837313;29;20077;-77
2022/09/08 07:46:44;;;;;;;2.97;1.67;;;;;;;;;;4838648;29;20046;-77
2022/09/08 07:49:29;;;;;;;1.60;1.50;;;;;;;;;;4838205;29;20046;-77
2022/09/08 07:52:00;;;;;;;4.25;2.03;;;;;;;;;;4837662;29;20069;-77
2022/09/08 07:54:52;;;;;;;4.27;1.80;;;;;;;;;;4822899;29;20121;-77
2022/09/08 07:57:57;;;;;;;2.97;2.00;;;;;;;;;;4840324;29;20132;-77
2022/09/08 08:00:44;;;;;;;2.92;1.48;;;;;;;;;;4851248;29;20065;-78
2022/09/08 08:03:12;;;;;;;3.22;2.60;;;;;;;;;;4856598;29;20050;-76
2022/09/08 08:05:39;;;;;;;4.20;1.48;;;;;;;;;;4841449;29;20136;-76
2022/09/08 08:08:30;;;;;;;1.85;1.38;;;;;;;;;;4837741;29;20194;-76
2022/09/08 08:11:23;;;;;;;1.77;1.20;;;;;;;;;;4837501;29;20183;-76
2022/09/08 08:14:28;;;;;;;1.30;1.20;;;;;;;;;;4836101;29;20048;-76
2022/09/08 08:17:14;;;;;;;4.10;1.65;;;;;;;;;;4835681;29;20109;-76
2022/09/08 08:20:00;;;;;;;4.53;1.70;;;;;;;;;;4816692;29;20057;-76
2022/09/08 08:22:36;;;;;;;1.48;1.38;;;;;;;;;;4837574;29;20631;-76
2022/09/08 08:25:09;;;;;;;2.08;1.33;;;;;;;;;;4837986;29;20065;-77
2022/09/08 08:27:42;;;;;;;1.73;1.40;;;;;;;;;;4836089;29;20054;-77
2022/09/08 08:30:17;;;;;;;2.40;1.60;;;;;;;;;;4834017;29;20132;-76
2022/09/08 08:33:03;;;;;;;2.30;1.40;;;;;;;;;;4833169;29;20049;-76
2022/09/08 08:36:00;;;;;;;7.47;1.38;;;;;;;;;;4836342;29;20042;-76
2022/09/08 08:38:41;;;;;;;6.53;1.75;;;;;;;;;;4815310;29;20061;-77
2022/09/08 08:41:15;;;;;;;0.93;0.93;;;;;;;;;;4837661;29;20058;-76
2022/09/08 08:44:12;;;;;;;2.55;1.35;;;;;;;;;;4836310;29;20045;-77
2022/09/08 08:46:50;;;;;;;2.15;1.30;;;;;;;;;;4806297;29;20055;-76
2022/09/08 08:49:17;;;;;;;1.23;1.13;;;;;;;;;;4819426;29;20051;-77
2022/09/08 08:51:44;;;;;;;1.35;1.20;;;;;;;;;;4817565;29;20057;-77
2022/09/08 08:54:28;;;;;;;1.27;1.02;;;;;;;;;;4818013;29;20042;-76
2022/09/08 08:57:05;;;;;;;1.77;0.98;;;;;;;;;;4817961;29;20137;-80
2022/09/08 08:59:49;;;;;;;3.28;1.48;;;;;;;;;;4821703;29;20058;-76
2022/09/08 09:02:21;;;;;;;1.88;1.27;;;;;;;;;;4825452;29;20057;-77
2022/09/08 09:04:48;;;;;;;;;;;;;;;;;;4823281;29;20088;-77
2022/09/08 09:07:16;;;;;;;1.40;1.02;;;;;;;;;;4823168;29;19953;-77
2022/09/08 09:09:46;;;;;;;1.98;1.27;;;;;;;;;;4825286;29;20084;-77
2022/09/08 09:12:20;;;;;;;3.42;1.20;;;;;;;;;;4824880;29;20105;-77
2022/09/08 09:15:06;;;;;;;2.28;0.98;;;;;;;;;;4824918;29;20055;-77
2022/09/08 09:17:59;;;;;;;1.55;0.90;;;;;;;;;;4827161;29;20065;-77
2022/09/08 09:20:38;;;;;;;1.17;1.08;;;;;;;;;;4828768;29;20071;-77
2022/09/08 09:23:13;;;;;;;2.83;1.00;;;;;;;;;;4842979;29;20077;-77
2022/09/08 09:25:51;;;;;;;2.30;1.13;;;;;;;;;;4843040;29;20058;-77
2022/09/08 09:28:25;;;;;;;1.05;0.82;;;;;;;;;;4842748;29;20045;-77
2022/09/08 09:31:01;;;;;;;1.30;1.20;;;;;;;;;;4843870;29;20156;-77
2022/09/08 09:33:53;;;;;;;1.25;1.10;;;;;;;;;;4842127;29;20060;-77
2022/09/08 09:36:23;;;;;;;3.85;1.05;;;;;;;;;;4841917;29;20042;-77
2022/09/08 09:39:04;;;;;;;2.00;0.95;;;;;;;;;;4843313;29;20046;-77
2022/09/08 09:41:35;;;;;;;1.02;1.02;;;;;;;;;;4839979;29;20058;-77
2022/09/08 09:44:08;;;;;;;1.27;1.10;;;;;;;;;;4839906;29;20050;-77
2022/09/08 09:46:51;;;;;;;4.82;1.10;;;;;;;;;;4838737;29;20054;-77
2022/09/08 09:49:34;;;;;;;1.42;1.30;;;;;;;;;;4821999;29;20089;-77
2022/09/08 09:52:21;;;;;;;5.72;1.70;;;;;;;;;;4836026;29;20066;-76
2022/09/08 09:54:58;;;;;;;5.45;1.63;;;;;;;;;;4833704;29;20069;-77
2022/09/08 09:57:38;;;;;;;4.50;1.00;;;;;;;;;;4849797;29;20058;-78
2022/09/08 10:00:08;;;;;;;11.68;1.30;;;;;;;;;;4848032;29;20137;-78
2022/09/08 10:02:38;;;;;;;3.53;1.40;;;;;;;;;;4839695;29;20081;-77
2022/09/08 10:05:36;;;;;;;2.05;0.90;;;;;;;;;;4836468;29;20085;-77
2022/09/08 10:08:10;;;;;;;4.45;1.00;;;;;;;;;;4837303;29;20073;-79
2022/09/08 10:11:01;;;;;;;1.25;1.13;;;;;;;;;;4837101;29;20060;-79
2022/09/08 10:13:31;;;;;;;6.28;1.48;;;;;;;;;;4827377;29;20142;-77
2022/09/08 10:15:59;;;;;;;2.25;0.98;;;;;;;;;;4821324;29;20054;-78
2022/09/08 10:18:35;;;;;;;3.05;1.23;;;;;;;;;;4837369;29;20166;-77
2022/09/08 10:21:03;;;;;;;2.55;1.40;;;;;;;;;;4837635;29;20152;-77
2022/09/08 10:23:33;;;;;;;2.75;1.08;;;;;;;;;;4836695;29;20065;-77
2022/09/08 10:26:19;;;;;;;6.20;4.53;;;;;;;;;;5265704;23;20045;-74
2022/09/08 10:28:56;;;;;;;3.70;3.30;;;;;;;;;;4854297;29;20053;-75
2022/09/08 10:31:43;;;;;;;2.90;2.42;;;;;;;;;;4854335;29;20053;-75
2022/09/08 10:34:40;;;;;;;1.58;1.40;;;;;;;;;;4854800;29;20084;-72
2022/09/08 10:37:26;;;;;;;2.13;1.52;;;;;;;;;;4830931;29;20063;-72
2022/09/08 10:40:04;;;;;;;4.65;1.30;;;;;;;;;;4870014;29;20048;-73
2022/09/08 10:42:43;;;;;;;2.05;1.00;;;;;;;;;;4873096;29;20112;-72
2022/09/08 10:45:16;;;;;;;1.15;1.00;;;;;;;;;;4873269;29;20501;-73
2022/09/08 10:47:44;;;;;;;1.90;1.10;;;;;;;;;;4872151;29;20045;-73
2022/09/08 10:50:11;;;;;;;1.63;0.90;;;;;;;;;;4872851;29;20045;-73
2022/09/08 10:53:02;;;;;;;5.20;4.72;;;;;;;;;;4872339;29;20057;-73
2022/09/08 10:55:48;;;;;;;1.85;1.27;;;;;;;;;;4861584;29;20438;-72
2022/09/08 10:58:34;;;;;;;1.50;0.90;;;;;;;;;;4859318;29;20098;-73
2022/09/08 11:01:10;;;;;;;0.75;0.75;;;;;;;;;;4862366;29;20046;-76
2022/09/08 11:03:56;;;;;;;2.58;0.80;;;;;;;;;;4859359;29;20082;-74
2022/09/08 11:06:36;;;;;;;0.77;0.77;;;;;;;;;;4858264;29;20533;-75
2022/09/08 11:09:09;;;;;;;2.15;0.80;;;;;;;;;;4853804;29;20094;-73
2022/09/08 11:11:39;;;;;;;17.25;1.55;;;;;;;;;;4853292;29;20064;-74
2022/09/08 11:14:26;;;;;;;1.02;0.90;;;;;;;;;;4852253;29;20045;-74
2022/09/08 11:17:12;;;;;;;1.50;0.88;;;;;;;;;;4853042;29;20061;-75
2022/09/08 11:19:41;;;;;;;1.10;1.00;;;;;;;;;;4848542;29;20426;-74
2022/09/08 11:22:14;;;;;;;1.27;0.90;;;;;;;;;;4852703;29;20109;-73
2022/09/08 11:24:45;;;;;;;1.80;1.20;;;;;;;;;;4853126;29;20136;-75
2022/09/08 11:27:20;;;;;;;1.60;1.50;;;;;;;;;;4853205;29;20045;-75
2022/09/08 11:29:58;;;;;;;1.77;0.80;;;;;;;;;;4847500;29;20065;-73
2022/09/08 11:32:31;;;;;;;2.15;1.10;;;;;;;;;;4849271;29;20045;-75
2022/09/08 11:34:59;;;;;;;4.10;1.30;;;;;;;;;;4850701;29;20449;-75
2022/09/08 11:37:48;;;;;;;2.83;1.20;;;;;;;;;;4850880;29;20045;-75
2022/09/08 11:40:38;;;;;;;0.90;0.90;;;;;;;;;;4837773;29;20521;-71
2022/09/08 11:43:24;;;;;;;3.40;1.40;;;;;;;;;;4853680;29;20522;-74
2022/09/08 11:46:04;;;;;;;2.45;1.00;;;;;;;;;;4854340;29;20057;-73
2022/09/08 11:48:41;;;;;;;1.40;1.05;;;;;;;;;;4854679;29;20072;-74
2022/09/08 11:51:28;;;;;;;1.60;1.00;;;;;;;;;;4856737;29;20464;-72
2022/09/08 11:54:21;;;;;;;1.00;0.90;;;;;;;;;;4856666;29;20065;-74
2022/09/08 11:57:03;;;;;;;2.60;1.20;;;;;;;;;;4854681;29;20536;-75
2022/09/08 11:59:40;;;;;;;2.72;1.10;;;;;;;;;;4856495;29;20048;-74
2022/09/08 12:02:16;;;;;;;1.20;1.10;;;;;;;;;;4856951;29;20057;-75
2022/09/08 12:04:47;;;;;;;3.53;1.17;;;;;;;;;;4854984;29;20426;-75
2022/09/08 12:07:21;;;;;;;1.10;1.00;;;;;;;;;;4855735;29;20128;-75
2022/09/08 12:10:00;;;;;;;2.80;1.30;;;;;;;;;;4856384;29;20188;-74
2022/09/08 12:12:33;;;;;;;6.35;1.42;;;;;;;;;;4856181;29;20050;-74
2022/09/08 12:15:00;;;;;;;3.13;1.00;;;;;;;;;;4856066;29;20048;-74
2022/09/08 12:17:31;;;;;;;1.98;1.00;;;;;;;;;;4859596;29;20060;-74
2022/09/08 12:20:15;;;;;;;1.10;1.00;;;;;;;;;;4863396;29;20041;-74
2022/09/08 12:22:42;;;;;;;1.70;0.68;;;;;;;;;;4864538;29;20149;-72
2022/09/08 12:25:10;;;;;;;0.70;0.70;;;;;;;;;;4858115;29;20101;-73
2022/09/08 12:28:00;;;;;;;1.80;0.90;;;;;;;;;;4853894;29;20060;-75
2022/09/08 12:30:46;;;;;;;1.63;1.02;;;;;;;;;;4853681;29;20048;-76
2022/09/08 12:33:37;;;;;;;2.85;1.10;;;;;;;;;;4852908;29;20045;-75
2022/09/08 12:36:22;;;;;;;1.08;0.80;;;;;;;;;;4848674;29;20052;-77
2022/09/08 12:39:05;;;;;;;0.90;0.90;;;;;;;;;;4849246;29;20049;-75
2022/09/08 12:41:52;;;;;;;0.93;0.75;;;;;;;;;;4848664;29;20065;-73
2022/09/08 12:44:40;;;;;;;1.10;0.63;;;;;;;;;;4838445;29;20105;-73
2022/09/08 12:47:19;;;;;;;2.05;0.50;;;;;;;;;;4849971;29;20049;-75
2022/09/08 12:49:51;;;;;;;0.70;0.70;;;;;;;;;;4848927;29;20042;-74
2022/09/08 12:52:31;;;;;;;1.10;0.60;;;;;;;;;;4830676;29;20054;-75
2022/09/08 12:55:12;;;;;;;2.00;0.70;;;;;;;;;;4840749;29;20061;-75
2022/09/08 12:57:56;;;;;;;0.60;0.60;;;;;;;;;;4853455;29;20053;-74
2022/09/08 13:00:27;;;;;;;0.70;0.60;;;;;;;;;;4845012;29;20056;-74
2022/09/08 13:02:57;;;;;;;3.90;3.63;;;;;;;;;;4845340;29;20100;-74
2022/09/08 13:05:24;;;;;;;0.90;0.90;;;;;;;;;;4827923;29;20045;-75
2022/09/08 13:07:55;;;;;;;0.88;0.88;;;;;;;;;;4844157;29;20041;-75
2022/09/08 13:10:32;;;;;;;0.97;0.97;;;;;;;;;;4845552;29;20145;-76
2022/09/08 13:13:30;;;;;;;0.63;0.60;;;;;;;;;;4851501;29;20578;-74
2022/09/08 13:16:09;;;;;;;0.77;0.77;;;;;;;;;;4860342;29;20041;-76
2022/09/08 13:18:39;;;;;;;1.27;0.82;;;;;;;;;;4850846;29;20046;-76
2022/09/08 13:21:13;;;;;;;2.50;0.70;;;;;;;;;;4839459;29;20165;-75
2022/09/08 13:23:48;;;;;;;0.50;0.50;;;;;;;;;;4851610;29;20057;-75
2022/09/08 13:26:24;;;;;;;1.58;1.05;;;;;;;;;;4845860;29;20046;-75
2022/09/08 13:29:03;;;;;;;1.52;0.60;;;;;;;;;;4857616;29;20571;-76
2022/09/08 13:32:11;;;;;;;2.75;0.70;;;;;;;;;;4852011;29;20109;-76
2022/09/08 13:34:50;;;;;;;1.00;0.70;;;;;;;;;;4853606;29;20050;-74
2022/09/08 13:37:38;;;;;;;3.78;0.90;;;;;;;;;;4853462;29;20048;-75
2022/09/08 13:40:05;;;;;;;0.70;0.70;;;;;;;;;;4837992;29;20057;-73
2022/09/08 13:42:45;;;;;;;0.77;0.70;;;;;;;;;;4853139;29;20045;-74
2022/09/08 13:45:17;;;;;;;1.02;0.80;;;;;;;;;;4853234;29;20525;-76
2022/09/08 13:47:53;;;;;;;0.85;0.68;;;;;;;;;;4851092;29;20049;-74
2022/09/08 13:50:39;;;;;;;1.27;0.80;;;;;;;;;;4850472;29;20505;-74
2022/09/08 13:53:15;;;;;;;1.75;0.80;;;;;;;;;;4848055;29;20034;-74
2022/09/08 13:56:04;;;;;;;0.73;0.70;;;;;;;;;;4851435;29;20048;-75
2022/09/08 13:58:34;;;;;;;0.65;0.65;;;;;;;;;;4848099;29;20105;-76
2022/09/08 14:01:08;;;;;;;1.15;0.90;;;;;;;;;;4849757;29;20521;-76
2022/09/08 14:03:59;;;;;;;2.08;0.90;;;;;;;;;;4852138;29;20110;-75
2022/09/08 14:06:52;;;;;;;1.10;1.00;;;;;;;;;;4843036;29;20065;-76
2022/09/08 14:09:24;;;;;;;1.02;1.02;;;;;;;;;;4850239;29;20052;-75
2022/09/08 14:11:57;;;;;;;0.93;0.82;;;;;;;;;;4852742;29;20044;-76
2022/09/08 14:14:24;;;;;;;3.25;0.82;;;;;;;;;;4843110;29;20053;-75
2022/09/08 14:17:02;;;;;;;0.93;0.93;;;;;;;;;;4835221;29;20372;-76
2022/09/08 14:19:58;;;;;;;1.50;0.90;;;;;;;;;;4852837;29;20610;-75
2022/09/08 14:22:32;;;;;;;3.65;1.52;;;;;;;;;;4843709;29;20507;-75
2022/09/08 14:25:15;;;;;;;2.25;1.15;;;;;;;;;;4853362;29;20132;-75
2022/09/08 14:28:03;;;;;;;1.00;1.00;;;;;;;;;;4844233;29;20513;-77
2022/09/08 14:30:45;;;;;;;1.48;1.30;;;;;;;;;;4852944;29;20475;-75
2022/09/08 14:33:34;;;;;;;2.70;0.90;;;;;;;;;;4851692;29;20048;-74
2022/09/08 14:36:24;;;;;;;1.38;1.15;;;;;;;;;;4852666;29;20045;-76
2022/09/08 14:39:30;;;;;;;1.30;1.30;;;;;;;;;;4851208;29;20050;-75
2022/09/08 14:42:17;;;;;;;1.20;1.20;;;;;;;;;;4813264;29;20054;-76
2022/09/08 14:45:03;;;;;;;1.67;1.30;;;;;;;;;;4812252;29;20058;-76
2022/09/08 14:47:35;;;;;;;1.17;1.17;;;;;;;;;;4837752;29;20109;-74
2022/09/08 14:50:23;;;;;;;1.88;1.40;;;;;;;;;;4852359;29;20053;-75
2022/09/08 14:53:11;;;;;;;1.85;1.45;;;;;;;;;;4850693;29;20045;-75
2022/09/08 14:55:55;;;;;;;1.65;1.38;;;;;;;;;;4853337;29;20132;-75
2022/09/08 14:58:31;;;;;;;2.88;1.23;;;;;;;;;;4853631;29;20573;-75
2022/09/08 15:01:02;;;;;;;1.13;1.10;;;;;;;;;;4851076;29;20045;-77
2022/09/08 15:03:30;;;;;;;3.08;1.40;;;;;;;;;;4841842;29;20045;-74
2022/09/08 15:05:57;;;;;;;3.40;1.60;;;;;;;;;;4851264;29;20053;-76
2022/09/08 15:08:27;;;;;;;3.13;2.00;;;;;;;;;;4849457;29;20062;-72
2022/09/08 15:11:00;;;;;;;2.55;2.35;;;;;;;;;;4852626;29;20046;-74
2022/09/08 15:13:30;;;;;;;1.73;1.60;;;;;;;;;;4853858;29;20052;-75
2022/09/08 15:16:16;;;;;;;1.10;1.10;;;;;;;;;;4855692;29;20049;-74
2022/09/08 15:18:49;;;;;;;1.40;1.30;;;;;;;;;;4850923;29;20144;-75
2022/09/08 15:21:23;;;;;;;1.25;1.10;;;;;;;;;;4858148;29;20073;-75
2022/09/08 15:23:52;;;;;;;0.80;0.80;;;;;;;;;;4867961;29;20065;-75
2022/09/08 15:26:31;;;;;;;1.02;0.93;;;;;;;;;;4860748;29;20065;-74
2022/09/08 15:29:14;;;;;;;1.00;1.00;;;;;;;;;;4858888;29;20141;-74
2022/09/08 15:31:49;;;;;;;1.58;0.88;;;;;;;;;;4868496;29;20129;-75